createdAt,value
2017-06-28T00:00:10.504Z,18.40
2017-06-28T00:02:38.799Z,18.40
2017-06-28T00:05:06.377Z,18.30
2017-06-28T00:07:33.904Z,18.30
2017-06-28T00:10:01.463Z,18.30
2017-06-28T00:12:29.026Z,18.30
2017-06-28T00:14:56.556Z,18.40
2017-06-28T00:17:24.085Z,18.50
2017-06-28T00:19:51.649Z,18.30
2017-06-28T00:22:19.171Z,18.40
2017-06-28T00:24:46.692Z,18.40
2017-06-28T00:27:14.260Z,18.40
2017-06-28T00:29:41.771Z,18.40
2017-06-28T00:32:09.320Z,18.30
2017-06-28T00:34:36.880Z,18.20
2017-06-28T00:37:04.403Z,18.20
2017-06-28T00:39:31.939Z,18.30
2017-06-28T00:42:00.259Z,18.40
2017-06-28T00:44:27.820Z,18.40
2017-06-28T00:46:55.340Z,18.20
2017-06-28T00:49:23.657Z,18.20
2017-06-28T00:51:51.244Z,18.10
2017-06-28T00:54:18.768Z,18.20
2017-06-28T00:56:46.305Z,17.80
2017-06-28T00:59:13.857Z,17.90
2017-06-28T01:01:41.419Z,17.80
2017-06-28T01:04:08.943Z,17.90
2017-06-28T01:06:36.465Z,18.00
2017-06-28T01:09:04.028Z,17.90
2017-06-28T01:11:31.605Z,18.10
2017-06-28T01:13:59.137Z,18.00
2017-06-28T01:16:26.652Z,17.90
2017-06-28T01:18:54.221Z,18.10
2017-06-28T01:21:21.748Z,18.00
2017-06-28T01:23:50.052Z,17.90
2017-06-28T01:26:17.608Z,17.80
2017-06-28T01:28:45.141Z,17.70
2017-06-28T01:31:13.434Z,18.00
2017-06-28T01:33:40.976Z,17.90
2017-06-28T01:36:09.251Z,17.90
2017-06-28T01:38:36.850Z,17.80
2017-06-28T01:41:04.378Z,17.70
2017-06-28T01:43:31.925Z,17.60
2017-06-28T01:46:00.245Z,17.60
2017-06-28T01:48:27.770Z,17.50
2017-06-28T01:50:55.332Z,17.50
2017-06-28T01:53:22.856Z,17.60
2017-06-28T01:55:50.417Z,17.60
2017-06-28T01:58:17.988Z,17.70
2017-06-28T02:00:46.305Z,17.90
2017-06-28T02:03:13.820Z,17.90
2017-06-28T02:05:42.144Z,17.80
2017-06-28T02:08:09.716Z,17.80
2017-06-28T02:10:37.240Z,17.80
2017-06-28T02:13:04.763Z,17.70
2017-06-28T02:15:32.320Z,17.60
2017-06-28T02:17:59.847Z,17.70
2017-06-28T02:20:27.379Z,17.90
2017-06-28T02:22:54.935Z,17.90
2017-06-28T02:25:22.460Z,18.00
2017-06-28T02:27:50.785Z,17.70
2017-06-28T02:30:18.325Z,17.60
2017-06-28T02:32:45.837Z,17.80
2017-06-28T02:35:14.177Z,17.80
2017-06-28T02:37:41.700Z,17.80
2017-06-28T02:40:09.228Z,17.70
2017-06-28T02:42:36.799Z,17.60
2017-06-28T02:45:04.320Z,17.60
2017-06-28T02:47:31.837Z,17.60
2017-06-28T02:49:59.407Z,17.70
2017-06-28T02:52:26.923Z,17.70
2017-06-28T02:54:55.216Z,17.40
2017-06-28T02:57:22.776Z,17.40
2017-06-28T02:59:50.296Z,17.50
2017-06-28T03:02:17.841Z,17.50
2017-06-28T03:04:45.363Z,17.40
2017-06-28T03:07:24.957Z,17.50
2017-06-28T03:09:52.521Z,17.50
2017-06-28T03:12:20.051Z,17.60
2017-06-28T03:14:47.585Z,17.60
2017-06-28T03:17:15.154Z,17.70
2017-06-28T03:19:42.673Z,17.50
2017-06-28T03:22:10.960Z,17.50
2017-06-28T03:24:38.522Z,17.50
2017-06-28T03:27:06.035Z,17.50
2017-06-28T03:29:33.540Z,17.40
2017-06-28T03:32:01.086Z,17.40
2017-06-28T03:34:28.618Z,17.40
2017-06-28T03:36:56.967Z,17.50
2017-06-28T03:39:24.489Z,17.50
2017-06-28T03:41:52.010Z,17.70
2017-06-28T03:44:20.362Z,17.80
2017-06-28T03:46:47.886Z,17.70
2017-06-28T03:49:15.428Z,17.70
2017-06-28T03:51:42.979Z,17.80
2017-06-28T03:54:10.515Z,17.80
2017-06-28T03:56:38.053Z,17.80
2017-06-28T03:59:05.631Z,17.80
2017-06-28T04:01:33.156Z,17.80
2017-06-28T04:04:00.691Z,18.00
2017-06-28T04:06:28.256Z,18.10
2017-06-28T04:08:55.781Z,18.20
2017-06-28T04:11:23.299Z,18.30
2017-06-28T04:13:50.872Z,18.30
2017-06-28T04:16:18.394Z,18.40
2017-06-28T04:18:45.936Z,18.60
2017-06-28T04:21:13.546Z,18.50
2017-06-28T04:23:41.076Z,18.60
2017-06-28T04:26:08.587Z,18.60
2017-06-28T04:28:36.146Z,18.50
2017-06-28T04:31:03.683Z,18.70
2017-06-28T04:33:31.963Z,18.60
2017-06-28T04:36:00.328Z,18.70
2017-06-28T04:38:27.854Z,18.60
2017-06-28T04:40:55.369Z,19.00
2017-06-28T04:43:22.932Z,18.90
2017-06-28T04:45:50.465Z,19.00
2017-06-28T04:48:18.752Z,19.00
2017-06-28T04:50:46.323Z,18.90
2017-06-28T04:53:13.836Z,19.10
2017-06-28T04:55:41.351Z,19.10
2017-06-28T04:58:08.923Z,19.20
2017-06-28T05:00:36.443Z,19.30
2017-06-28T05:03:04.724Z,19.80
2017-06-28T05:05:32.280Z,19.70
2017-06-28T05:07:59.820Z,19.80
2017-06-28T05:10:27.359Z,19.70
2017-06-28T05:12:54.944Z,19.80
2017-06-28T05:15:22.475Z,19.90
2017-06-28T05:17:49.994Z,19.90
2017-06-28T05:20:17.547Z,20.00
2017-06-28T05:22:45.055Z,20.00
2017-06-28T05:25:12.573Z,20.10
2017-06-28T05:27:40.136Z,20.00
2017-06-28T05:30:07.676Z,20.00
2017-06-28T05:32:35.194Z,20.00
2017-06-28T05:35:03.520Z,20.00
2017-06-28T05:37:31.175Z,20.00
2017-06-28T05:39:58.708Z,19.90
2017-06-28T05:42:26.269Z,19.90
2017-06-28T05:44:53.775Z,19.80
2017-06-28T05:47:21.285Z,19.80
2017-06-28T05:49:48.846Z,19.80
2017-06-28T05:52:16.368Z,19.80
2017-06-28T05:54:44.654Z,19.70
2017-06-28T05:57:13.007Z,19.80
2017-06-28T05:59:40.529Z,19.70
2017-06-28T06:02:08.052Z,19.80
2017-06-28T06:04:37.828Z,20.00
2017-06-28T06:07:05.360Z,20.00
2017-06-28T06:09:32.884Z,20.10
2017-06-28T06:12:00.544Z,20.10
2017-06-28T06:14:28.064Z,20.10
2017-06-28T06:16:55.599Z,20.30
2017-06-28T06:19:23.224Z,20.60
2017-06-28T06:21:50.756Z,20.80
2017-06-28T06:24:19.041Z,20.60
2017-06-28T06:26:47.380Z,20.50
2017-06-28T06:29:14.892Z,20.40
2017-06-28T06:31:42.420Z,20.40
2017-06-28T06:34:10.743Z,20.40
2017-06-28T06:36:38.268Z,20.40
2017-06-28T06:39:05.820Z,20.40
2017-06-28T06:41:33.391Z,20.30
2017-06-28T06:44:00.915Z,20.40
2017-06-28T06:46:28.431Z,20.90
2017-06-28T06:48:56.008Z,21.10
2017-06-28T06:51:23.632Z,21.10
2017-06-28T06:53:51.164Z,21.00
2017-06-28T06:56:19.503Z,21.60
2017-06-28T06:58:47.023Z,21.50
2017-06-28T07:01:14.571Z,21.90
2017-06-28T07:03:42.147Z,22.10
2017-06-28T07:06:09.663Z,22.30
2017-06-28T07:08:37.192Z,22.50
2017-06-28T07:11:04.755Z,22.80
2017-06-28T07:13:32.280Z,22.90
2017-06-28T07:15:59.811Z,22.90
2017-06-28T07:18:27.404Z,23.10
2017-06-28T07:20:54.923Z,23.30
2017-06-28T07:23:22.473Z,23.60
2017-06-28T07:25:50.066Z,23.90
2017-06-28T07:28:17.585Z,24.20
2017-06-28T07:30:45.883Z,24.50
2017-06-28T07:33:13.451Z,24.40
2017-06-28T07:35:40.975Z,24.20
2017-06-28T07:38:08.495Z,23.90
2017-06-28T07:40:36.061Z,23.70
2017-06-28T07:43:03.620Z,23.70
2017-06-28T07:45:31.151Z,24.00
2017-06-28T07:47:58.725Z,24.20
2017-06-28T07:50:26.248Z,24.30
2017-06-28T07:52:53.775Z,24.20
2017-06-28T07:55:21.339Z,24.20
2017-06-28T07:57:48.855Z,24.20
2017-06-28T08:00:16.391Z,24.40
2017-06-28T08:02:43.960Z,24.50
2017-06-28T08:05:11.483Z,24.10
2017-06-28T08:07:39.000Z,23.80
2017-06-28T08:10:06.578Z,23.60
2017-06-28T08:12:34.100Z,23.40
2017-06-28T08:15:01.620Z,23.40
2017-06-28T08:17:29.228Z,23.30
2017-06-28T08:19:56.795Z,23.10
2017-06-28T08:22:24.322Z,22.90
2017-06-28T08:24:51.876Z,23.00
2017-06-28T08:27:19.390Z,23.30
2017-06-28T08:29:46.928Z,23.60
2017-06-28T08:32:14.524Z,23.80
2017-06-28T08:34:42.047Z,23.60
2017-06-28T08:37:09.575Z,23.50
2017-06-28T08:39:37.167Z,23.20
2017-06-28T08:42:04.701Z,23.00
2017-06-28T08:44:32.220Z,22.80
2017-06-28T08:46:59.784Z,22.60
2017-06-28T08:49:27.305Z,22.20
2017-06-28T08:51:55.591Z,21.50
2017-06-28T08:54:23.908Z,21.30
2017-06-28T08:56:51.451Z,21.20
2017-06-28T08:59:18.984Z,21.10
2017-06-28T09:01:46.576Z,21.10
2017-06-28T09:04:14.100Z,21.10
2017-06-28T09:06:42.396Z,21.10
2017-06-28T09:09:09.973Z,21.00
2017-06-28T09:11:37.508Z,21.00
2017-06-28T09:14:05.020Z,20.40
2017-06-28T09:16:32.591Z,20.50
2017-06-28T09:19:00.119Z,20.50
2017-06-28T09:21:27.633Z,20.30
2017-06-28T09:23:55.188Z,20.30
2017-06-28T09:26:22.724Z,20.30
2017-06-28T09:28:50.239Z,20.40
2017-06-28T09:31:17.840Z,20.30
2017-06-28T09:33:46.120Z,20.50
2017-06-28T09:36:14.431Z,20.40
2017-06-28T09:38:41.979Z,20.40
2017-06-28T09:41:09.500Z,20.10
2017-06-28T09:43:37.789Z,20.40
2017-06-28T09:46:06.131Z,20.40
2017-06-28T09:48:33.643Z,20.30
2017-06-28T09:51:01.164Z,20.30
2017-06-28T09:53:28.728Z,20.30
2017-06-28T09:55:57.020Z,20.60
2017-06-28T09:58:24.544Z,20.60
2017-06-28T10:00:52.117Z,20.90
2017-06-28T10:03:19.639Z,21.10
2017-06-28T10:05:47.162Z,21.40
2017-06-28T10:08:14.741Z,22.00
2017-06-28T10:10:42.267Z,22.30
2017-06-28T10:13:09.799Z,22.60
2017-06-28T10:15:37.356Z,22.40
2017-06-28T10:18:04.879Z,22.40
2017-06-28T10:20:32.484Z,22.50
2017-06-28T10:23:00.823Z,22.90
2017-06-28T10:25:28.347Z,22.80
2017-06-28T10:27:55.874Z,23.00
2017-06-28T10:30:23.443Z,22.80
2017-06-28T10:32:50.987Z,23.20
2017-06-28T10:35:18.499Z,23.10
2017-06-28T10:37:46.105Z,22.90
2017-06-28T10:40:13.619Z,22.90
2017-06-28T10:42:41.151Z,22.90
2017-06-28T10:45:08.709Z,23.40
2017-06-28T10:47:36.232Z,23.40
2017-06-28T10:50:04.509Z,24.10
2017-06-28T10:52:32.072Z,24.00
2017-06-28T10:54:59.604Z,24.10
2017-06-28T10:57:27.121Z,23.60
2017-06-28T10:59:54.681Z,23.60
2017-06-28T11:02:22.190Z,23.60
2017-06-28T11:04:49.720Z,23.50
2017-06-28T11:07:17.275Z,23.90
2017-06-28T11:09:44.808Z,24.70
2017-06-28T11:12:12.330Z,25.20
2017-06-28T11:14:40.665Z,25.70
2017-06-28T11:17:08.171Z,25.70
2017-06-28T11:19:35.688Z,26.10
2017-06-28T11:22:03.259Z,26.20
2017-06-28T11:24:30.792Z,26.20
2017-06-28T11:26:58.314Z,26.20
2017-06-28T11:29:25.956Z,26.20
2017-06-28T11:31:54.261Z,26.00
2017-06-28T11:34:21.781Z,25.90
2017-06-28T11:36:50.119Z,26.30
2017-06-28T11:39:17.635Z,26.20
2017-06-28T11:41:45.151Z,26.90
2017-06-28T11:44:12.997Z,27.30
2017-06-28T11:46:40.524Z,27.70
2017-06-28T11:49:08.045Z,27.80
2017-06-28T11:51:35.603Z,27.70
2017-06-28T11:54:03.127Z,28.10
2017-06-28T11:56:30.664Z,27.80
2017-06-28T11:58:58.239Z,28.20
2017-06-28T12:01:25.762Z,28.50
2017-06-28T12:03:53.275Z,28.80
2017-06-28T12:06:20.836Z,28.80
2017-06-28T12:08:48.359Z,28.70
2017-06-28T12:11:15.883Z,28.60
2017-06-28T12:13:44.199Z,28.50
2017-06-28T12:16:11.731Z,28.50
2017-06-28T12:18:39.256Z,28.50
2017-06-28T12:21:06.840Z,28.20
2017-06-28T12:23:34.351Z,28.40
2017-06-28T12:26:01.864Z,28.70
2017-06-28T12:28:29.424Z,28.60
2017-06-28T12:30:56.951Z,28.80
2017-06-28T12:33:25.236Z,28.00
2017-06-28T12:35:52.795Z,28.00
2017-06-28T12:38:20.331Z,27.90
2017-06-28T12:40:47.852Z,28.10
2017-06-28T12:43:15.408Z,28.30
2017-06-28T12:45:42.918Z,28.40
2017-06-28T12:48:11.199Z,28.30
2017-06-28T12:50:38.756Z,28.30
2017-06-28T12:53:07.033Z,27.70
2017-06-28T12:55:34.551Z,27.60
2017-06-28T12:58:02.119Z,27.20
2017-06-28T13:00:29.643Z,27.20
2017-06-28T13:02:57.176Z,27.00
2017-06-28T13:05:24.735Z,26.80
2017-06-28T13:07:52.252Z,26.80
2017-06-28T13:10:19.757Z,26.60
2017-06-28T13:12:47.316Z,26.30
2017-06-28T13:15:14.836Z,26.30
2017-06-28T13:17:42.367Z,26.00
2017-06-28T13:20:09.948Z,25.80
2017-06-28T13:22:38.243Z,25.50
2017-06-28T13:25:05.756Z,25.50
2017-06-28T13:27:33.313Z,25.50
2017-06-28T13:30:00.827Z,25.30
2017-06-28T13:32:28.355Z,25.10
2017-06-28T13:34:56.690Z,25.10
2017-06-28T13:37:24.217Z,25.00
2017-06-28T13:39:51.744Z,25.10
2017-06-28T13:42:20.063Z,24.90
2017-06-28T13:44:47.584Z,24.80
2017-06-28T13:47:15.871Z,24.70
2017-06-28T13:49:43.454Z,24.60
2017-06-28T13:52:10.964Z,24.40
2017-06-28T13:54:39.250Z,24.60
2017-06-28T13:57:06.843Z,24.50
2017-06-28T13:59:34.362Z,24.70
2017-06-28T14:02:01.884Z,24.70
2017-06-28T14:04:29.439Z,24.50
2017-06-28T14:06:56.961Z,24.40
2017-06-28T14:09:24.475Z,24.30
2017-06-28T14:11:52.029Z,24.30
2017-06-28T14:14:19.541Z,24.40
2017-06-28T14:16:47.097Z,24.50
2017-06-28T14:19:14.696Z,24.40
2017-06-28T14:21:42.211Z,24.50
2017-06-28T14:24:09.729Z,24.50
2017-06-28T14:26:37.289Z,24.60
2017-06-28T14:29:04.792Z,24.80
2017-06-28T14:31:32.309Z,24.80
2017-06-28T14:33:59.875Z,24.70
2017-06-28T14:36:27.400Z,24.40
2017-06-28T14:38:54.920Z,24.10
2017-06-28T14:41:22.486Z,23.90
2017-06-28T14:43:49.992Z,23.70
2017-06-28T14:46:18.268Z,23.90
2017-06-28T14:48:45.832Z,23.90
2017-06-28T14:51:13.360Z,23.90
2017-06-28T14:53:40.884Z,23.90
2017-06-28T14:56:08.441Z,23.60
2017-06-28T14:58:35.986Z,23.60
2017-06-28T15:01:03.516Z,23.60
2017-06-28T15:03:31.881Z,23.50
2017-06-28T15:06:00.175Z,23.30
2017-06-28T15:08:27.696Z,23.30
2017-06-28T15:10:55.270Z,23.20
2017-06-28T15:13:22.780Z,23.10
2017-06-28T15:15:50.323Z,23.20
2017-06-28T15:18:17.876Z,23.00
2017-06-28T15:20:45.415Z,23.00
2017-06-28T15:23:12.944Z,23.10
2017-06-28T15:25:40.503Z,23.10
2017-06-28T15:28:08.008Z,23.30
2017-06-28T15:30:36.377Z,23.20
2017-06-28T15:33:03.938Z,23.10
2017-06-28T15:35:31.448Z,23.10
2017-06-28T15:37:58.960Z,23.10
2017-06-28T15:40:26.524Z,23.00
2017-06-28T15:42:54.045Z,23.00
2017-06-28T15:45:21.593Z,23.00
2017-06-28T15:47:49.155Z,22.80
2017-06-28T15:50:16.671Z,22.80
2017-06-28T15:52:44.195Z,22.80
2017-06-28T15:55:11.756Z,22.80
2017-06-28T15:57:39.263Z,22.80
2017-06-28T16:00:06.785Z,22.80
2017-06-28T16:02:34.347Z,22.90
2017-06-28T16:05:01.875Z,23.10
2017-06-28T16:07:30.153Z,23.20
2017-06-28T16:09:57.711Z,23.10
2017-06-28T16:12:25.232Z,23.00
2017-06-28T16:14:52.740Z,22.90
2017-06-28T16:17:20.300Z,22.90
2017-06-28T16:19:47.820Z,22.70
2017-06-28T16:22:16.104Z,22.40
2017-06-28T16:24:44.483Z,22.30
2017-06-28T16:27:12.027Z,22.30
2017-06-28T16:29:39.540Z,22.20
2017-06-28T16:32:07.174Z,22.10
2017-06-28T16:34:34.753Z,22.00
2017-06-28T16:37:02.292Z,21.90
2017-06-28T16:39:29.860Z,22.00
2017-06-28T16:41:57.441Z,22.10
2017-06-28T16:44:25.051Z,22.10
2017-06-28T16:46:53.380Z,22.20
2017-06-28T16:49:20.965Z,22.10
2017-06-28T16:51:49.260Z,22.10
2017-06-28T16:54:17.601Z,22.00
2017-06-28T16:56:45.216Z,22.00
2017-06-28T16:59:12.739Z,21.90
2017-06-28T17:01:40.324Z,21.60
2017-06-28T17:04:07.905Z,21.60
2017-06-28T17:06:35.524Z,21.50
2017-06-28T17:09:03.165Z,21.50
2017-06-28T17:11:30.737Z,21.60
2017-06-28T17:13:59.028Z,21.50
2017-06-28T17:16:27.384Z,21.50
2017-06-28T17:18:54.940Z,21.50
2017-06-28T17:21:22.456Z,21.50
2017-06-28T17:23:50.023Z,21.50
2017-06-28T17:26:17.617Z,21.50
2017-06-28T17:28:45.902Z,21.50
2017-06-28T17:31:14.262Z,21.40
2017-06-28T17:33:41.776Z,21.40
2017-06-28T17:36:09.287Z,21.50
2017-06-28T17:38:36.920Z,21.50
2017-06-28T17:41:04.455Z,21.50
2017-06-28T17:43:31.968Z,21.60
2017-06-28T17:45:59.529Z,21.50
2017-06-28T17:48:27.044Z,21.40
2017-06-28T17:50:54.666Z,21.40
2017-06-28T17:53:22.275Z,21.30
2017-06-28T17:55:49.799Z,21.40
2017-06-28T17:58:17.312Z,21.30
2017-06-28T18:00:45.888Z,21.40
2017-06-28T18:03:14.249Z,21.30
2017-06-28T18:05:41.762Z,21.30
2017-06-28T18:08:09.351Z,21.40
2017-06-28T18:10:36.920Z,21.30
2017-06-28T18:13:04.423Z,21.30
2017-06-28T18:15:32.005Z,21.40
2017-06-28T18:17:59.513Z,21.40
2017-06-28T18:20:27.031Z,21.50
2017-06-28T18:22:54.952Z,21.50
2017-06-28T18:25:22.477Z,21.50
2017-06-28T18:27:49.988Z,21.30
2017-06-28T18:30:17.608Z,21.20
2017-06-28T18:32:45.888Z,21.20
2017-06-28T18:35:14.176Z,21.20
2017-06-28T18:37:42.624Z,21.10
2017-06-28T18:40:10.154Z,21.20
2017-06-28T18:42:37.691Z,21.20
2017-06-28T18:45:05.314Z,21.00
2017-06-28T18:47:33.595Z,21.10
2017-06-28T18:50:01.884Z,20.90
2017-06-28T18:52:29.439Z,20.90
2017-06-28T18:54:56.953Z,20.90
2017-06-28T18:57:24.464Z,21.00
2017-06-28T18:59:52.024Z,21.00
2017-06-28T19:02:19.544Z,20.90
2017-06-28T19:04:47.064Z,20.90
2017-06-28T19:07:14.678Z,20.90
2017-06-28T19:09:42.969Z,20.70
2017-06-28T19:12:10.492Z,20.70
2017-06-28T19:14:38.041Z,20.70
2017-06-28T19:17:05.568Z,20.70
2017-06-28T19:19:33.100Z,20.70
2017-06-28T19:22:00.652Z,20.60
2017-06-28T19:24:28.240Z,20.60
2017-06-28T19:26:55.849Z,20.70
2017-06-28T19:29:23.464Z,20.50
2017-06-28T19:31:50.988Z,20.40
2017-06-28T19:34:18.508Z,20.40
2017-06-28T19:36:46.080Z,20.30
2017-06-28T19:39:14.369Z,20.40
2017-06-28T19:41:42.712Z,20.40
2017-06-28T19:44:10.349Z,20.40
2017-06-28T19:46:37.872Z,20.50
2017-06-28T19:49:05.467Z,20.50
2017-06-28T19:51:33.034Z,20.40
2017-06-28T19:54:00.555Z,20.30
2017-06-28T19:56:28.077Z,20.30
2017-06-28T19:58:56.460Z,20.30
2017-06-28T20:01:23.979Z,20.20
2017-06-28T20:03:51.539Z,20.10
2017-06-28T20:06:19.088Z,20.00
2017-06-28T20:08:46.607Z,20.00
2017-06-28T20:11:14.167Z,20.00
2017-06-28T20:13:41.687Z,20.00
2017-06-28T20:16:09.198Z,20.00
2017-06-28T20:18:36.751Z,20.00
2017-06-28T20:21:04.280Z,19.90
2017-06-28T20:23:32.551Z,19.60
2017-06-28T20:26:00.120Z,19.50
2017-06-28T20:28:27.647Z,19.60
2017-06-28T20:30:55.165Z,19.50
2017-06-28T20:33:22.722Z,19.50
2017-06-28T20:35:50.228Z,19.50
2017-06-28T20:38:18.516Z,19.50
2017-06-28T20:40:46.086Z,19.40
2017-06-28T20:43:13.603Z,19.40
2017-06-28T20:45:41.158Z,19.40
2017-06-28T20:48:08.763Z,19.40
2017-06-28T20:50:36.288Z,19.30
2017-06-28T20:53:03.800Z,19.30
2017-06-28T20:55:31.372Z,19.20
2017-06-28T20:57:58.902Z,19.10
2017-06-28T21:00:26.432Z,19.20
2017-06-28T21:02:54.759Z,19.20
2017-06-28T21:05:22.267Z,19.10
2017-06-28T21:07:50.544Z,19.30
2017-06-28T21:10:18.135Z,19.20
2017-06-28T21:12:45.701Z,19.30
2017-06-28T21:15:13.209Z,19.20
2017-06-28T21:17:41.540Z,19.30
2017-06-28T21:20:09.106Z,19.30
2017-06-28T21:22:36.629Z,19.10
2017-06-28T21:25:04.155Z,18.90
2017-06-28T21:27:32.468Z,18.80
2017-06-28T21:29:59.984Z,18.70
2017-06-28T21:32:27.539Z,18.70
2017-06-28T21:34:55.083Z,18.50
2017-06-28T21:37:22.600Z,18.50
2017-06-28T21:39:50.160Z,18.70
2017-06-28T21:42:17.738Z,18.80
2017-06-28T21:47:19.897Z,18.80
2017-06-28T21:49:47.429Z,18.90
2017-06-28T21:52:14.956Z,18.90
2017-06-28T21:54:42.512Z,18.90
2017-06-28T21:57:10.032Z,19.00
2017-06-28T21:59:37.547Z,19.10
2017-06-28T22:02:05.130Z,19.00
2017-06-28T22:04:32.653Z,19.00
2017-06-28T22:07:00.171Z,18.90
2017-06-28T22:09:27.738Z,18.90
2017-06-28T22:11:55.267Z,18.80
2017-06-28T22:14:22.791Z,18.80
2017-06-28T22:16:51.109Z,19.10
2017-06-28T22:19:39.255Z,19.00
2017-06-28T22:22:06.796Z,19.00
2017-06-28T22:24:34.339Z,19.10
2017-06-28T22:27:01.912Z,18.90
2017-06-28T22:29:29.472Z,18.80
2017-06-28T22:31:56.991Z,18.80
2017-06-28T22:34:24.520Z,18.70
2017-06-28T22:36:52.081Z,18.70
2017-06-28T22:39:19.612Z,18.90
2017-06-28T22:41:47.123Z,19.10
2017-06-28T22:44:14.675Z,19.10
2017-06-28T22:46:42.251Z,19.10
2017-06-28T22:49:10.565Z,18.70
2017-06-28T22:51:38.096Z,18.60
2017-06-28T22:54:05.654Z,18.60
2017-06-28T22:56:33.171Z,18.50
2017-06-28T22:59:00.680Z,18.50
2017-06-28T23:01:28.204Z,18.60
2017-06-28T23:03:56.504Z,18.40
2017-06-28T23:06:24.059Z,18.40
2017-06-28T23:08:51.576Z,18.40
2017-06-28T23:11:19.140Z,18.30
2017-06-28T23:13:46.657Z,18.30
2017-06-28T23:16:14.175Z,18.20
2017-06-28T23:18:42.503Z,18.10
2017-06-28T23:21:10.024Z,18.00
2017-06-28T23:23:37.536Z,18.00
2017-06-28T23:26:05.123Z,18.10
2017-06-28T23:28:33.427Z,18.10
2017-06-28T23:31:00.951Z,18.00
2017-06-28T23:33:29.272Z,18.10
2017-06-28T23:35:56.860Z,18.00
2017-06-28T23:38:24.390Z,18.00
2017-06-28T23:40:51.907Z,17.90
2017-06-28T23:43:20.231Z,17.90
2017-06-28T23:45:47.750Z,17.90
2017-06-28T23:48:15.276Z,18.00
2017-06-28T23:50:42.817Z,18.00
2017-06-28T23:53:10.331Z,18.00
2017-06-28T23:55:37.891Z,17.90
2017-06-28T23:58:05.420Z,17.90
